sensor_id;sensor_type;location;lat;lon;timestamp;temperature;humidity
48666;DHT22;34452;50.796;4.994;2023-11-19T00:02:14;13.40;99.90
48666;DHT22;34452;50.796;4.994;2023-11-19T00:04:40;13.50;99.90
48666;DHT22;34452;50.796;4.994;2023-11-19T00:07:06;13.50;99.90
48666;DHT22;34452;50.796;4.994;2023-11-19T00:09:36;13.40;99.90
48666;DHT22;34452;50.796;4.994;2023-11-19T00:12:04;13.40;99.90
48666;DHT22;34452;50.796;4.994;2023-11-19T00:14:30;13.50;99.90
48666;DHT22;34452;50.796;4.994;2023-11-19T00:16:56;13.50;99.90
48666;DHT22;34452;50.796;4.994;2023-11-19T00:19:22;13.50;99.90
48666;DHT22;34452;50.796;4.994;2023-11-19T00:21:48;13.50;99.90
48666;DHT22;34452;50.796;4.994;2023-11-19T00:24:13;13.50;99.90
48666;DHT22;34452;50.796;4.994;2023-11-19T00:26:42;13.50;99.90
48666;DHT22;34452;50.796;4.994;2023-11-19T00:29:08;13.50;99.90
48666;DHT22;34452;50.796;4.994;2023-11-19T00:31:35;13.60;99.90
48666;DHT22;34452;50.796;4.994;2023-11-19T00:34:01;13.60;99.90
48666;DHT22;34452;50.796;4.994;2023-11-19T00:36:27;13.60;99.90
48666;DHT22;34452;50.796;4.994;2023-11-19T00:38:54;13.60;99.90
48666;DHT22;34452;50.796;4.994;2023-11-19T00:41:20;13.60;99.90
48666;DHT22;34452;50.796;4.994;2023-11-19T00:43:46;13.60;99.90
48666;DHT22;34452;50.796;4.994;2023-11-19T00:46:12;13.60;99.90
48666;DHT22;34452;50.796;4.994;2023-11-19T00:48:39;13.60;99.90
48666;DHT22;34452;50.796;4.994;2023-11-19T00:51:06;13.60;99.90
48666;DHT22;34452;50.796;4.994;2023-11-19T00:53:32;13.60;99.90
48666;DHT22;34452;50.796;4.994;2023-11-19T00:55:59;13.60;99.90
48666;DHT22;34452;50.796;4.994;2023-11-19T00:58:25;13.60;99.90
48666;DHT22;34452;50.796;4.994;2023-11-19T01:00:51;13.60;99.90
48666;DHT22;34452;50.796;4.994;2023-11-19T01:03:17;13.60;99.90
48666;DHT22;34452;50.796;4.994;2023-11-19T01:05:43;13.50;99.90
48666;DHT22;34452;50.796;4.994;2023-11-19T01:08:10;13.60;99.90
48666;DHT22;34452;50.796;4.994;2023-11-19T01:10:39;13.60;99.90
48666;DHT22;34452;50.796;4.994;2023-11-19T01:13:04;13.60;99.90
48666;DHT22;34452;50.796;4.994;2023-11-19T01:15:34;13.60;99.90
48666;DHT22;34452;50.796;4.994;2023-11-19T01:18:00;13.60;99.90
48666;DHT22;34452;50.796;4.994;2023-11-19T01:20:27;13.50;99.90
48666;DHT22;34452;50.796;4.994;2023-11-19T01:22:53;13.60;99.90
48666;DHT22;34452;50.796;4.994;2023-11-19T01:25:19;13.60;99.90
48666;DHT22;34452;50.796;4.994;2023-11-19T01:27:45;13.60;99.90
48666;DHT22;34452;50.796;4.994;2023-11-19T01:30:11;13.60;99.90
48666;DHT22;34452;50.796;4.994;2023-11-19T01:32:40;13.60;99.90
48666;DHT22;34452;50.796;4.994;2023-11-19T01:35:06;13.60;99.90
48666;DHT22;34452;50.796;4.994;2023-11-19T01:37:34;13.60;99.90
48666;DHT22;34452;50.796;4.994;2023-11-19T01:40:03;13.60;99.90
48666;DHT22;34452;50.796;4.994;2023-11-19T01:42:39;13.60;99.90
48666;DHT22;34452;50.796;4.994;2023-11-19T01:45:06;13.60;99.90
48666;DHT22;34452;50.796;4.994;2023-11-19T01:47:33;13.60;99.90
48666;DHT22;34452;50.796;4.994;2023-11-19T01:50:01;13.70;99.90
48666;DHT22;34452;50.796;4.994;2023-11-19T01:52:33;13.70;99.90
48666;DHT22;34452;50.796;4.994;2023-11-19T01:55:01;13.70;99.90
48666;DHT22;34452;50.796;4.994;2023-11-19T01:57:28;13.60;99.90
48666;DHT22;34452;50.796;4.994;2023-11-19T01:59:53;13.60;99.90
48666;DHT22;34452;50.796;4.994;2023-11-19T02:02:19;13.70;99.90
48666;DHT22;34452;50.796;4.994;2023-11-19T02:04:49;13.60;99.90
48666;DHT22;34452;50.796;4.994;2023-11-19T02:07:15;13.60;99.90
48666;DHT22;34452;50.796;4.994;2023-11-19T02:09:43;13.60;99.90
48666;DHT22;34452;50.796;4.994;2023-11-19T02:12:09;13.70;99.90
48666;DHT22;34452;50.796;4.994;2023-11-19T02:14:37;13.70;99.90
48666;DHT22;34452;50.796;4.994;2023-11-19T02:17:04;13.60;99.90
48666;DHT22;34452;50.796;4.994;2023-11-19T02:19:30;13.50;99.90
48666;DHT22;34452;50.796;4.994;2023-11-19T02:21:55;13.50;99.90
48666;DHT22;34452;50.796;4.994;2023-11-19T02:24:25;13.50;99.90
48666;DHT22;34452;50.796;4.994;2023-11-19T02:29:22;13.50;99.90
48666;DHT22;34452;50.796;4.994;2023-11-19T02:31:48;13.50;99.90
48666;DHT22;34452;50.796;4.994;2023-11-19T02:34:14;13.50;99.90
48666;DHT22;34452;50.796;4.994;2023-11-19T02:36:39;13.50;99.90
48666;DHT22;34452;50.796;4.994;2023-11-19T02:39:07;13.40;99.90
48666;DHT22;34452;50.796;4.994;2023-11-19T02:41:36;13.40;99.90
48666;DHT22;34452;50.796;4.994;2023-11-19T02:44:06;13.40;99.90
48666;DHT22;34452;50.796;4.994;2023-11-19T02:46:32;13.30;99.90
48666;DHT22;34452;50.796;4.994;2023-11-19T02:48:57;13.30;99.90
48666;DHT22;34452;50.796;4.994;2023-11-19T02:51:23;13.30;99.90
48666;DHT22;34452;50.796;4.994;2023-11-19T02:53:49;13.20;99.90
48666;DHT22;34452;50.796;4.994;2023-11-19T02:56:15;13.20;99.90
48666;DHT22;34452;50.796;4.994;2023-11-19T02:58:45;13.10;99.90
48666;DHT22;34452;50.796;4.994;2023-11-19T03:01:12;13.10;99.90
48666;DHT22;34452;50.796;4.994;2023-11-19T03:03:50;13.00;99.90
48666;DHT22;34452;50.796;4.994;2023-11-19T03:06:22;13.00;99.90
48666;DHT22;34452;50.796;4.994;2023-11-19T03:08:48;13.00;99.90
48666;DHT22;34452;50.796;4.994;2023-11-19T03:11:14;12.90;99.90
48666;DHT22;34452;50.796;4.994;2023-11-19T03:13:40;12.90;99.90
48666;DHT22;34452;50.796;4.994;2023-11-19T03:16:07;12.90;99.90
48666;DHT22;34452;50.796;4.994;2023-11-19T03:18:33;12.80;99.90
48666;DHT22;34452;50.796;4.994;2023-11-19T03:20:59;12.80;99.90
48666;DHT22;34452;50.796;4.994;2023-11-19T03:23:25;12.80;99.90
48666;DHT22;34452;50.796;4.994;2023-11-19T03:25:53;12.70;99.90
48666;DHT22;34452;50.796;4.994;2023-11-19T03:28:19;12.70;99.90
48666;DHT22;34452;50.796;4.994;2023-11-19T03:30:45;12.70;99.90
48666;DHT22;34452;50.796;4.994;2023-11-19T03:33:11;12.70;99.90
48666;DHT22;34452;50.796;4.994;2023-11-19T03:35:37;12.70;99.90
48666;DHT22;34452;50.796;4.994;2023-11-19T03:38:02;12.70;99.90
48666;DHT22;34452;50.796;4.994;2023-11-19T03:40:28;12.60;99.90
48666;DHT22;34452;50.796;4.994;2023-11-19T03:42:57;12.70;99.90
48666;DHT22;34452;50.796;4.994;2023-11-19T03:45:26;12.60;99.90
48666;DHT22;34452;50.796;4.994;2023-11-19T03:47:52;12.60;99.90
48666;DHT22;34452;50.796;4.994;2023-11-19T03:50:18;12.60;99.90
48666;DHT22;34452;50.796;4.994;2023-11-19T03:52:46;12.60;99.90
48666;DHT22;34452;50.796;4.994;2023-11-19T03:55:12;12.60;99.90
48666;DHT22;34452;50.796;4.994;2023-11-19T03:57:38;12.50;99.90
48666;DHT22;34452;50.796;4.994;2023-11-19T04:00:04;12.50;99.90
48666;DHT22;34452;50.796;4.994;2023-11-19T04:02:35;12.50;99.90
48666;DHT22;34452;50.796;4.994;2023-11-19T04:05:01;12.40;99.90
48666;DHT22;34452;50.796;4.994;2023-11-19T04:07:27;12.40;99.90
48666;DHT22;34452;50.796;4.994;2023-11-19T04:09:53;12.40;99.90
48666;DHT22;34452;50.796;4.994;2023-11-19T04:12:18;12.40;99.90
48666;DHT22;34452;50.796;4.994;2023-11-19T04:14:44;12.40;99.90
48666;DHT22;34452;50.796;4.994;2023-11-19T04:17:10;12.40;99.90
48666;DHT22;34452;50.796;4.994;2023-11-19T04:19:36;12.40;99.90
48666;DHT22;34452;50.796;4.994;2023-11-19T04:22:02;12.40;99.90
48666;DHT22;34452;50.796;4.994;2023-11-19T04:24:28;12.40;99.90
48666;DHT22;34452;50.796;4.994;2023-11-19T04:26:53;12.30;99.90
48666;DHT22;34452;50.796;4.994;2023-11-19T04:29:19;12.40;99.90
48666;DHT22;34452;50.796;4.994;2023-11-19T04:31:45;12.40;99.90
48666;DHT22;34452;50.796;4.994;2023-11-19T04:34:11;12.40;99.90
48666;DHT22;34452;50.796;4.994;2023-11-19T04:36:37;12.40;99.90
48666;DHT22;34452;50.796;4.994;2023-11-19T04:39:04;12.40;99.90
48666;DHT22;34452;50.796;4.994;2023-11-19T04:41:50;12.50;99.90
48666;DHT22;34452;50.796;4.994;2023-11-19T04:44:17;12.50;99.90
48666;DHT22;34452;50.796;4.994;2023-11-19T04:46:43;12.60;99.90
48666;DHT22;34452;50.796;4.994;2023-11-19T04:49:10;12.60;99.90
48666;DHT22;34452;50.796;4.994;2023-11-19T04:51:44;12.70;99.90
48666;DHT22;34452;50.796;4.994;2023-11-19T04:54:11;12.70;99.90
48666;DHT22;34452;50.796;4.994;2023-11-19T04:56:37;12.70;99.90
48666;DHT22;34452;50.796;4.994;2023-11-19T04:59:03;12.70;99.90
48666;DHT22;34452;50.796;4.994;2023-11-19T05:01:29;12.60;99.90
48666;DHT22;34452;50.796;4.994;2023-11-19T05:03:56;12.60;99.90
48666;DHT22;34452;50.796;4.994;2023-11-19T05:06:29;12.50;99.90
48666;DHT22;34452;50.796;4.994;2023-11-19T05:08:56;12.50;99.90
48666;DHT22;34452;50.796;4.994;2023-11-19T05:11:22;12.50;99.90
48666;DHT22;34452;50.796;4.994;2023-11-19T05:13:48;12.50;99.90
48666;DHT22;34452;50.796;4.994;2023-11-19T05:16:14;12.50;99.90
48666;DHT22;34452;50.796;4.994;2023-11-19T05:18:40;12.60;99.90
48666;DHT22;34452;50.796;4.994;2023-11-19T05:21:06;12.60;99.90
48666;DHT22;34452;50.796;4.994;2023-11-19T05:23:33;12.70;99.90
48666;DHT22;34452;50.796;4.994;2023-11-19T05:26:01;12.70;99.90
48666;DHT22;34452;50.796;4.994;2023-11-19T05:28:28;12.70;99.90
48666;DHT22;34452;50.796;4.994;2023-11-19T05:30:54;12.70;99.90
48666;DHT22;34452;50.796;4.994;2023-11-19T05:33:19;12.60;99.90
48666;DHT22;34452;50.796;4.994;2023-11-19T05:35:45;12.60;99.90
48666;DHT22;34452;50.796;4.994;2023-11-19T05:38:11;12.60;99.90
48666;DHT22;34452;50.796;4.994;2023-11-19T05:40:37;12.50;99.90
48666;DHT22;34452;50.796;4.994;2023-11-19T05:43:04;12.40;99.90
48666;DHT22;34452;50.796;4.994;2023-11-19T05:45:31;12.30;99.90
48666;DHT22;34452;50.796;4.994;2023-11-19T05:47:57;12.30;99.90
48666;DHT22;34452;50.796;4.994;2023-11-19T05:50:23;12.10;99.90
48666;DHT22;34452;50.796;4.994;2023-11-19T05:52:49;12.10;99.90
48666;DHT22;34452;50.796;4.994;2023-11-19T05:55:15;12.00;99.90
48666;DHT22;34452;50.796;4.994;2023-11-19T05:57:41;12.00;99.90
48666;DHT22;34452;50.796;4.994;2023-11-19T06:00:07;11.90;99.90
48666;DHT22;34452;50.796;4.994;2023-11-19T06:02:34;11.90;99.90
48666;DHT22;34452;50.796;4.994;2023-11-19T06:05:00;11.90;99.90
48666;DHT22;34452;50.796;4.994;2023-11-19T06:07:27;11.80;99.90
48666;DHT22;34452;50.796;4.994;2023-11-19T06:09:53;11.80;99.90
48666;DHT22;34452;50.796;4.994;2023-11-19T06:12:19;11.80;99.90
48666;DHT22;34452;50.796;4.994;2023-11-19T06:14:45;11.80;99.90
48666;DHT22;34452;50.796;4.994;2023-11-19T06:17:10;11.90;99.90
48666;DHT22;34452;50.796;4.994;2023-11-19T06:19:37;11.90;99.90
48666;DHT22;34452;50.796;4.994;2023-11-19T06:22:06;11.90;99.90
48666;DHT22;34452;50.796;4.994;2023-11-19T06:24:32;11.90;99.90
48666;DHT22;34452;50.796;4.994;2023-11-19T06:26:57;11.90;99.90
48666;DHT22;34452;50.796;4.994;2023-11-19T06:29:24;11.90;99.90
48666;DHT22;34452;50.796;4.994;2023-11-19T06:31:50;11.80;99.90
48666;DHT22;34452;50.796;4.994;2023-11-19T06:34:16;11.80;99.90
48666;DHT22;34452;50.796;4.994;2023-11-19T06:36:42;11.80;99.90
48666;DHT22;34452;50.796;4.994;2023-11-19T06:39:10;11.70;99.90
48666;DHT22;34452;50.796;4.994;2023-11-19T06:41:36;11.70;99.90
48666;DHT22;34452;50.796;4.994;2023-11-19T06:44:05;11.60;99.90
48666;DHT22;34452;50.796;4.994;2023-11-19T06:46:31;11.60;99.90
48666;DHT22;34452;50.796;4.994;2023-11-19T06:48:57;11.60;99.90
48666;DHT22;34452;50.796;4.994;2023-11-19T06:51:23;11.60;99.90
48666;DHT22;34452;50.796;4.994;2023-11-19T06:53:50;11.60;99.90
48666;DHT22;34452;50.796;4.994;2023-11-19T06:56:33;11.50;99.90
48666;DHT22;34452;50.796;4.994;2023-11-19T06:58:59;11.50;99.90
48666;DHT22;34452;50.796;4.994;2023-11-19T07:01:25;11.50;99.90
48666;DHT22;34452;50.796;4.994;2023-11-19T07:03:51;11.50;99.90
48666;DHT22;34452;50.796;4.994;2023-11-19T07:06:16;11.40;99.90
48666;DHT22;34452;50.796;4.994;2023-11-19T07:08:42;11.40;99.90
48666;DHT22;34452;50.796;4.994;2023-11-19T07:11:12;11.40;99.90
48666;DHT22;34452;50.796;4.994;2023-11-19T07:13:40;11.40;99.90
48666;DHT22;34452;50.796;4.994;2023-11-19T07:16:07;11.40;99.90
48666;DHT22;34452;50.796;4.994;2023-11-19T07:18:35;11.40;99.90
48666;DHT22;34452;50.796;4.994;2023-11-19T07:21:01;11.40;99.90
48666;DHT22;34452;50.796;4.994;2023-11-19T07:23:28;11.40;99.90
48666;DHT22;34452;50.796;4.994;2023-11-19T07:25:54;11.40;99.90
48666;DHT22;34452;50.796;4.994;2023-11-19T07:28:20;11.30;99.90
48666;DHT22;34452;50.796;4.994;2023-11-19T07:30:45;11.40;99.90
48666;DHT22;34452;50.796;4.994;2023-11-19T07:33:11;11.40;99.90
48666;DHT22;34452;50.796;4.994;2023-11-19T07:35:39;11.40;99.90
48666;DHT22;34452;50.796;4.994;2023-11-19T07:38:06;11.40;99.90
48666;DHT22;34452;50.796;4.994;2023-11-19T07:40:32;11.40;99.90
48666;DHT22;34452;50.796;4.994;2023-11-19T07:42:58;11.50;99.90
48666;DHT22;34452;50.796;4.994;2023-11-19T07:45:24;11.50;99.90
48666;DHT22;34452;50.796;4.994;2023-11-19T07:47:49;11.50;99.90
48666;DHT22;34452;50.796;4.994;2023-11-19T07:50:16;11.60;99.90
48666;DHT22;34452;50.796;4.994;2023-11-19T07:52:45;11.60;99.90
48666;DHT22;34452;50.796;4.994;2023-11-19T07:55:11;11.60;99.90
48666;DHT22;34452;50.796;4.994;2023-11-19T07:57:37;11.70;99.90
48666;DHT22;34452;50.796;4.994;2023-11-19T08:00:04;11.70;99.90
48666;DHT22;34452;50.796;4.994;2023-11-19T08:02:30;11.80;99.90
48666;DHT22;34452;50.796;4.994;2023-11-19T08:04:55;11.80;99.90
48666;DHT22;34452;50.796;4.994;2023-11-19T08:07:21;11.80;99.90
48666;DHT22;34452;50.796;4.994;2023-11-19T08:09:48;11.80;99.90
48666;DHT22;34452;50.796;4.994;2023-11-19T08:12:14;11.90;99.90
48666;DHT22;34452;50.796;4.994;2023-11-19T08:14:41;11.90;99.90
48666;DHT22;34452;50.796;4.994;2023-11-19T08:17:07;11.90;99.90
48666;DHT22;34452;50.796;4.994;2023-11-19T08:19:33;12.00;99.90
48666;DHT22;34452;50.796;4.994;2023-11-19T08:21:59;12.00;99.90
48666;DHT22;34452;50.796;4.994;2023-11-19T08:24:24;12.10;99.90
48666;DHT22;34452;50.796;4.994;2023-11-19T08:26:50;12.10;99.90
48666;DHT22;34452;50.796;4.994;2023-11-19T08:29:16;12.20;99.90
48666;DHT22;34452;50.796;4.994;2023-11-19T08:31:42;12.20;99.90
48666;DHT22;34452;50.796;4.994;2023-11-19T08:34:08;12.20;99.90
48666;DHT22;34452;50.796;4.994;2023-11-19T08:36:34;12.30;99.90
48666;DHT22;34452;50.796;4.994;2023-11-19T08:39:00;12.30;99.90
48666;DHT22;34452;50.796;4.994;2023-11-19T08:41:26;12.30;99.90
48666;DHT22;34452;50.796;4.994;2023-11-19T08:43:52;12.30;99.90
48666;DHT22;34452;50.796;4.994;2023-11-19T08:46:18;12.40;99.90
48666;DHT22;34452;50.796;4.994;2023-11-19T08:48:44;12.30;99.90
48666;DHT22;34452;50.796;4.994;2023-11-19T08:51:12;12.40;99.90
48666;DHT22;34452;50.796;4.994;2023-11-19T08:53:38;12.50;99.90
48666;DHT22;34452;50.796;4.994;2023-11-19T08:56:04;12.50;99.90
48666;DHT22;34452;50.796;4.994;2023-11-19T08:58:30;12.60;99.90
48666;DHT22;34452;50.796;4.994;2023-11-19T09:00:56;12.60;99.90
48666;DHT22;34452;50.796;4.994;2023-11-19T09:03:23;12.70;99.90
48666;DHT22;34452;50.796;4.994;2023-11-19T09:05:49;12.80;99.90
48666;DHT22;34452;50.796;4.994;2023-11-19T09:08:15;12.80;99.90
48666;DHT22;34452;50.796;4.994;2023-11-19T09:10:40;13.00;99.90
48666;DHT22;34452;50.796;4.994;2023-11-19T09:13:06;13.10;99.90
48666;DHT22;34452;50.796;4.994;2023-11-19T09:15:33;13.20;99.90
48666;DHT22;34452;50.796;4.994;2023-11-19T09:17:59;13.30;99.90
48666;DHT22;34452;50.796;4.994;2023-11-19T09:20:24;13.40;99.90
48666;DHT22;34452;50.796;4.994;2023-11-19T09:22:50;13.40;99.90
48666;DHT22;34452;50.796;4.994;2023-11-19T09:25:17;13.50;99.90
48666;DHT22;34452;50.796;4.994;2023-11-19T09:27:43;13.60;99.90
48666;DHT22;34452;50.796;4.994;2023-11-19T09:30:09;13.60;99.90
48666;DHT22;34452;50.796;4.994;2023-11-19T09:32:35;13.70;99.90
48666;DHT22;34452;50.796;4.994;2023-11-19T09:35:03;13.70;99.90
48666;DHT22;34452;50.796;4.994;2023-11-19T09:37:29;13.80;99.90
48666;DHT22;34452;50.796;4.994;2023-11-19T09:39:55;13.90;99.90
48666;DHT22;34452;50.796;4.994;2023-11-19T09:42:20;13.90;99.90
48666;DHT22;34452;50.796;4.994;2023-11-19T09:44:47;13.90;99.90
48666;DHT22;34452;50.796;4.994;2023-11-19T09:47:16;14.00;99.90
48666;DHT22;34452;50.796;4.994;2023-11-19T09:49:43;14.00;99.90
48666;DHT22;34452;50.796;4.994;2023-11-19T09:52:09;14.10;99.90
48666;DHT22;34452;50.796;4.994;2023-11-19T09:54:35;14.10;99.90
48666;DHT22;34452;50.796;4.994;2023-11-19T09:57:01;14.10;99.90
48666;DHT22;34452;50.796;4.994;2023-11-19T09:59:31;14.10;99.90
48666;DHT22;34452;50.796;4.994;2023-11-19T10:01:57;14.10;99.90
48666;DHT22;34452;50.796;4.994;2023-11-19T10:04:24;14.20;99.90
48666;DHT22;34452;50.796;4.994;2023-11-19T10:06:51;14.20;99.90
48666;DHT22;34452;50.796;4.994;2023-11-19T10:09:17;14.10;99.90
48666;DHT22;34452;50.796;4.994;2023-11-19T10:11:44;14.10;99.90
48666;DHT22;34452;50.796;4.994;2023-11-19T10:14:10;14.00;99.90
48666;DHT22;34452;50.796;4.994;2023-11-19T10:16:38;13.80;99.90
48666;DHT22;34452;50.796;4.994;2023-11-19T10:19:04;13.70;99.90
48666;DHT22;34452;50.796;4.994;2023-11-19T10:21:32;13.50;99.90
48666;DHT22;34452;50.796;4.994;2023-11-19T10:23:59;13.50;99.90
48666;DHT22;34452;50.796;4.994;2023-11-19T10:26:25;13.60;99.90
48666;DHT22;34452;50.796;4.994;2023-11-19T10:28:52;13.70;99.90
48666;DHT22;34452;50.796;4.994;2023-11-19T10:31:19;13.60;99.90
48666;DHT22;34452;50.796;4.994;2023-11-19T10:33:46;13.70;99.90
48666;DHT22;34452;50.796;4.994;2023-11-19T10:36:12;13.70;99.90
48666;DHT22;34452;50.796;4.994;2023-11-19T10:38:38;13.80;99.90
48666;DHT22;34452;50.796;4.994;2023-11-19T10:41:05;13.80;99.90
48666;DHT22;34452;50.796;4.994;2023-11-19T10:43:43;13.80;99.90
48666;DHT22;34452;50.796;4.994;2023-11-19T10:46:13;13.90;99.90
48666;DHT22;34452;50.796;4.994;2023-11-19T10:48:40;13.90;99.90
48666;DHT22;34452;50.796;4.994;2023-11-19T10:51:07;14.00;99.90
48666;DHT22;34452;50.796;4.994;2023-11-19T10:53:37;14.10;99.90
48666;DHT22;34452;50.796;4.994;2023-11-19T10:56:06;14.20;99.90
48666;DHT22;34452;50.796;4.994;2023-11-19T10:58:36;14.30;99.90
48666;DHT22;34452;50.796;4.994;2023-11-19T11:01:11;14.40;99.90
48666;DHT22;34452;50.796;4.994;2023-11-19T11:03:43;14.60;99.90
48666;DHT22;34452;50.796;4.994;2023-11-19T11:06:13;14.70;99.90
48666;DHT22;34452;50.796;4.994;2023-11-19T11:08:39;14.80;99.90
48666;DHT22;34452;50.796;4.994;2023-11-19T11:11:07;14.80;99.90
48666;DHT22;34452;50.796;4.994;2023-11-19T11:13:33;14.80;99.90
48666;DHT22;34452;50.796;4.994;2023-11-19T11:16:00;14.80;99.90
48666;DHT22;34452;50.796;4.994;2023-11-19T11:18:26;14.90;99.90
48666;DHT22;34452;50.796;4.994;2023-11-19T11:21:03;15.00;99.90
48666;DHT22;34452;50.796;4.994;2023-11-19T11:28:48;15.20;99.90
48666;DHT22;34452;50.796;4.994;2023-11-19T11:36:41;15.30;99.90
48666;DHT22;34452;50.796;4.994;2023-11-19T11:39:10;15.30;99.90
48666;DHT22;34452;50.796;4.994;2023-11-19T11:41:36;15.40;99.90
48666;DHT22;34452;50.796;4.994;2023-11-19T11:44:02;15.50;99.90
48666;DHT22;34452;50.796;4.994;2023-11-19T11:49:04;15.50;99.90
48666;DHT22;34452;50.796;4.994;2023-11-19T11:54:09;15.40;99.90
48666;DHT22;34452;50.796;4.994;2023-11-19T11:56:38;15.40;99.90
48666;DHT22;34452;50.796;4.994;2023-11-19T11:59:18;15.30;99.90
48666;DHT22;34452;50.796;4.994;2023-11-19T12:01:59;15.20;99.90
48666;DHT22;34452;50.796;4.994;2023-11-19T12:04:28;15.10;99.90
48666;DHT22;34452;50.796;4.994;2023-11-19T12:07:11;15.00;99.90
48666;DHT22;34452;50.796;4.994;2023-11-19T12:09:42;15.00;99.90
48666;DHT22;34452;50.796;4.994;2023-11-19T12:12:26;14.80;99.90
48666;DHT22;34452;50.796;4.994;2023-11-19T12:15:05;14.80;99.90
48666;DHT22;34452;50.796;4.994;2023-11-19T12:20:01;14.70;99.90
48666;DHT22;34452;50.796;4.994;2023-11-19T12:22:27;14.70;99.90
48666;DHT22;34452;50.796;4.994;2023-11-19T12:24:56;14.70;99.90
48666;DHT22;34452;50.796;4.994;2023-11-19T12:27:22;14.70;99.90
48666;DHT22;34452;50.796;4.994;2023-11-19T12:29:48;14.80;99.90
48666;DHT22;34452;50.796;4.994;2023-11-19T12:32:14;14.90;99.90
48666;DHT22;34452;50.796;4.994;2023-11-19T12:34:40;15.00;99.90
48666;DHT22;34452;50.796;4.994;2023-11-19T12:37:06;15.00;99.90
48666;DHT22;34452;50.796;4.994;2023-11-19T12:39:32;15.00;99.90
48666;DHT22;34452;50.796;4.994;2023-11-19T12:41:58;14.90;99.90
48666;DHT22;34452;50.796;4.994;2023-11-19T12:44:27;14.90;99.90
48666;DHT22;34452;50.796;4.994;2023-11-19T12:47:03;14.90;99.90
48666;DHT22;34452;50.796;4.994;2023-11-19T12:49:29;15.00;99.90
48666;DHT22;34452;50.796;4.994;2023-11-19T12:51:55;15.00;99.90
48666;DHT22;34452;50.796;4.994;2023-11-19T12:54:41;15.00;99.90
48666;DHT22;34452;50.796;4.994;2023-11-19T12:57:07;15.00;99.90
48666;DHT22;34452;50.796;4.994;2023-11-19T12:59:33;14.90;99.90
48666;DHT22;34452;50.796;4.994;2023-11-19T13:01:59;14.80;99.90
48666;DHT22;34452;50.796;4.994;2023-11-19T13:04:30;14.70;99.90
48666;DHT22;34452;50.796;4.994;2023-11-19T13:06:59;14.70;99.90
48666;DHT22;34452;50.796;4.994;2023-11-19T13:09:26;14.70;99.90
48666;DHT22;34452;50.796;4.994;2023-11-19T13:11:53;14.70;99.90
48666;DHT22;34452;50.796;4.994;2023-11-19T13:14:19;14.70;99.90
48666;DHT22;34452;50.796;4.994;2023-11-19T13:16:46;14.70;99.90
48666;DHT22;34452;50.796;4.994;2023-11-19T13:19:13;14.70;99.90
48666;DHT22;34452;50.796;4.994;2023-11-19T13:21:39;14.70;99.90
48666;DHT22;34452;50.796;4.994;2023-11-19T13:24:06;14.60;99.90
48666;DHT22;34452;50.796;4.994;2023-11-19T13:26:32;14.60;99.90
48666;DHT22;34452;50.796;4.994;2023-11-19T13:28:58;14.70;99.90
48666;DHT22;34452;50.796;4.994;2023-11-19T13:31:23;14.70;99.90
48666;DHT22;34452;50.796;4.994;2023-11-19T13:33:49;14.80;99.90
48666;DHT22;34452;50.796;4.994;2023-11-19T13:36:15;14.80;99.90
48666;DHT22;34452;50.796;4.994;2023-11-19T13:38:41;14.70;99.90
48666;DHT22;34452;50.796;4.994;2023-11-19T13:41:07;14.60;99.90
48666;DHT22;34452;50.796;4.994;2023-11-19T13:43:37;14.60;99.90
48666;DHT22;34452;50.796;4.994;2023-11-19T13:46:03;14.50;99.90
48666;DHT22;34452;50.796;4.994;2023-11-19T13:48:29;14.40;99.90
48666;DHT22;34452;50.796;4.994;2023-11-19T13:50:55;14.30;99.90
48666;DHT22;34452;50.796;4.994;2023-11-19T13:53:22;14.20;99.90
48666;DHT22;34452;50.796;4.994;2023-11-19T13:55:49;14.20;99.90
48666;DHT22;34452;50.796;4.994;2023-11-19T13:58:15;14.10;99.90
48666;DHT22;34452;50.796;4.994;2023-11-19T14:00:41;14.00;99.90
48666;DHT22;34452;50.796;4.994;2023-11-19T14:03:07;13.90;99.90
48666;DHT22;34452;50.796;4.994;2023-11-19T14:05:35;13.80;99.90
48666;DHT22;34452;50.796;4.994;2023-11-19T14:08:01;13.80;99.90
48666;DHT22;34452;50.796;4.994;2023-11-19T14:10:26;13.90;99.90
48666;DHT22;34452;50.796;4.994;2023-11-19T14:12:53;14.00;99.90
48666;DHT22;34452;50.796;4.994;2023-11-19T14:15:18;14.00;99.90
48666;DHT22;34452;50.796;4.994;2023-11-19T14:17:45;14.10;99.90
48666;DHT22;34452;50.796;4.994;2023-11-19T14:20:11;14.10;99.90
48666;DHT22;34452;50.796;4.994;2023-11-19T14:22:44;14.00;99.90
48666;DHT22;34452;50.796;4.994;2023-11-19T14:25:12;14.00;99.90
48666;DHT22;34452;50.796;4.994;2023-11-19T14:27:39;13.90;99.90
48666;DHT22;34452;50.796;4.994;2023-11-19T14:30:06;13.70;99.90
48666;DHT22;34452;50.796;4.994;2023-11-19T14:32:32;13.70;99.90
48666;DHT22;34452;50.796;4.994;2023-11-19T14:34:58;13.60;99.90
48666;DHT22;34452;50.796;4.994;2023-11-19T14:37:24;13.60;99.90
48666;DHT22;34452;50.796;4.994;2023-11-19T14:39:50;13.60;99.90
48666;DHT22;34452;50.796;4.994;2023-11-19T14:42:16;13.70;99.90
48666;DHT22;34452;50.796;4.994;2023-11-19T14:44:42;13.80;99.90
48666;DHT22;34452;50.796;4.994;2023-11-19T14:47:08;13.80;99.90
48666;DHT22;34452;50.796;4.994;2023-11-19T14:49:36;13.80;99.90
48666;DHT22;34452;50.796;4.994;2023-11-19T14:52:04;13.80;99.90
48666;DHT22;34452;50.796;4.994;2023-11-19T14:54:30;13.70;99.90
48666;DHT22;34452;50.796;4.994;2023-11-19T14:56:56;13.70;99.90
48666;DHT22;34452;50.796;4.994;2023-11-19T14:59:22;13.70;99.90
48666;DHT22;34452;50.796;4.994;2023-11-19T15:01:47;13.70;99.90
48666;DHT22;34452;50.796;4.994;2023-11-19T15:04:13;13.70;99.90
48666;DHT22;34452;50.796;4.994;2023-11-19T15:06:39;13.80;99.90
48666;DHT22;34452;50.796;4.994;2023-11-19T15:09:05;13.90;99.90
48666;DHT22;34452;50.796;4.994;2023-11-19T15:11:33;13.80;99.90
48666;DHT22;34452;50.796;4.994;2023-11-19T15:13:59;13.80;99.90
48666;DHT22;34452;50.796;4.994;2023-11-19T15:16:25;13.70;99.90
48666;DHT22;34452;50.796;4.994;2023-11-19T15:18:57;13.60;99.90
48666;DHT22;34452;50.796;4.994;2023-11-19T15:21:26;13.60;99.90
48666;DHT22;34452;50.796;4.994;2023-11-19T15:23:52;13.50;99.90
48666;DHT22;34452;50.796;4.994;2023-11-19T15:26:18;13.50;99.90
48666;DHT22;34452;50.796;4.994;2023-11-19T15:28:45;13.40;99.90
48666;DHT22;34452;50.796;4.994;2023-11-19T15:31:10;13.50;99.90
48666;DHT22;34452;50.796;4.994;2023-11-19T15:33:36;13.40;99.90
48666;DHT22;34452;50.796;4.994;2023-11-19T15:36:02;13.40;99.90
48666;DHT22;34452;50.796;4.994;2023-11-19T15:38:34;13.30;99.90
48666;DHT22;34452;50.796;4.994;2023-11-19T15:41:00;13.20;99.90
48666;DHT22;34452;50.796;4.994;2023-11-19T15:43:25;13.20;99.90
48666;DHT22;34452;50.796;4.994;2023-11-19T15:45:51;13.10;99.90
48666;DHT22;34452;50.796;4.994;2023-11-19T15:48:17;13.10;99.90
48666;DHT22;34452;50.796;4.994;2023-11-19T15:50:44;13.10;99.90